Погода Таскескенна 2 недели

Восточно-Казахстанская область, Казахстан

25 июля-07 августа
  • 25июля
    Сегодня
    +17°
    +34°
    Ясно и безоблачно
    ВремяПогодаТемператураВлажностьДавлениеВетер, м/сВероятность осадков
    02:00Ясно и безоблачно+16°C82 %711 мм0.0 м/с2 %
    05:00Ясно и безоблачно+16°C78 %712 мм0.2 м/с2 %
    08:00Ясно и безоблачно+27°C63 %713 мм0.0 м/с2 %
    11:00Облачно с прояснениями+30°C48 %713 мм0.1 м/с2 %
    14:00Ясно и безоблачно+33°C42 %712 мм0.4 м/с6 %
    17:00Практически безоблачно+33°C51 %712 мм0.3 м/с4 %
    20:00Ясно и безоблачно+26°C75 %712 мм0.6 м/с2 %
    23:00Ясно и безоблачно+21°C67 %711 мм0.4 м/с2 %
  • 26июля
    Пятница
    +19°
    +36°
    Ясно и безоблачно
    ВремяПогодаТемператураВлажностьДавлениеВетер, м/сВероятность осадков
    02:00Ясно и безоблачно+19°C70 %711 мм0.1 м/с2 %
    05:00Ясно и безоблачно+18°C73 %711 мм0.2 м/с2 %
    08:00Ясно и безоблачно+29°C59 %713 мм0.0 м/с2 %
    11:00Ясно и безоблачно+33°C37 %713 мм0.2 м/с2 %
    14:00Ясно и безоблачно+35°C33 %712 мм0.2 м/с2 %
    17:00Практически безоблачно+34°C46 %712 мм0.3 м/с2 %
    20:00Облачно с прояснениями+26°C71 %713 мм0.3 м/с2 %
    23:00Ясно и безоблачно+21°C72 %713 мм0.0 м/с2 %
  • 27июля
    Суббота
    +19°
    +38°
    Ясно и безоблачно
    ВремяПогодаТемператураВлажностьДавлениеВетер, м/сВероятность осадков
    02:00Практически безоблачно+20°C67 %713 мм0.0 м/с2 %
    05:00Ясно и безоблачно+20°C65 %713 мм0.2 м/с2 %
    08:00Практически безоблачно+30°C49 %715 мм0.0 м/с2 %
    11:00Практически безоблачно+34°C41 %716 мм0.6 м/с11 %
    14:00Ясно и безоблачно+37°C36 %716 мм0.7 м/с27 %
    17:00Практически безоблачно+36°C47 %716 мм0.1 м/с10 %
    20:00Ясно и безоблачно+27°C64 %715 мм0.3 м/с2 %
    23:00Небольшая облачность+22°C67 %715 мм0.0 м/с2 %
  • 28июля
    Воскресенье
    +19°
    +36°
    Практически безоблачно
    ВремяПогодаТемператураВлажностьДавлениеВетер, м/сВероятность осадков
    02:00Практически безоблачно+21°C60 %714 мм0.1 м/с2 %
    05:00Ясно и безоблачно+20°C59 %714 мм0.2 м/с2 %
    08:00Практически безоблачно+31°C40 %715 мм0.2 м/с2 %
    11:00Ясно и безоблачно+35°C29 %715 мм1.5 м/с2 %
    14:00Практически безоблачно+36°C25 %714 мм1.8 м/с7 %
    17:00Практически безоблачно+35°C40 %714 мм1.0 м/с5 %
    20:00Небольшая облачность+27°C48 %714 мм0.4 м/с3 %
    23:00Ясно и безоблачно+23°C50 %713 мм0.0 м/с7 %
  • 29июля
    Понедельник
    +19°
    +35°
    Практически безоблачно
    ВремяПогодаТемператураВлажностьДавлениеВетер, м/сВероятность осадков
    02:00Ясно и безоблачно+21°C40 %713 мм0.0 м/с6 %
    05:00Небольшая облачность+20°C53 %714 мм0.2 м/с9 %
    08:00Ясно и безоблачно+30°C44 %715 мм0.0 м/с6 %
    11:00Ясно и безоблачно+33°C33 %715 мм1.1 м/с4 %
    14:00Практически безоблачно+35°C31 %715 мм1.3 м/с4 %
    17:00Ясно и безоблачно+35°C40 %714 мм0.2 м/с4 %
    20:00Практически безоблачно+27°C53 %714 мм0.3 м/с3 %
    23:00Облачно с прояснениями+23°C54 %713 мм0.3 м/с3 %
Мы используем cookies
Соглашаюсь